Time;durP1;ratioP1;P1;durP2;ratioP2;P2;SDS_P1;SDS_P2;PMS_P1;PMS_P2;Temp;Humidity;BMP_temperature;BMP_pressure;BME280_temperature;BME280_humidity;BME280_pressure;Samples;Min_cycle;Max_cycle;Signal;HPM_P1;HPM_P2
2021/12/07 00:00:21;;;;;;;2.67;0.50;;;8.90;99.90;;;;;;5052243;28;20052;-80
2021/12/07 00:02:46;;;;;;;14.90;1.42;;;8.80;99.90;;;;;;5052738;28;20021;-80
2021/12/07 00:05:12;;;;;;;0.00;0.00;;;8.70;99.90;;;;;;5052374;28;20024;-80
2021/12/07 00:07:42;;;;;;;1.13;0.93;;;8.70;99.90;;;;;;5052765;28;20029;-80
2021/12/07 00:10:08;;;;;;;0.75;0.75;;;8.70;99.90;;;;;;5052406;28;20032;-80
2021/12/07 00:12:38;;;;;;;0.75;0.50;;;8.70;99.90;;;;;;5052740;28;20055;-80
2021/12/07 00:15:04;;;;;;;15.10;3.80;;;8.70;99.90;;;;;;5052175;28;20036;-80
2021/12/07 00:17:31;;;;;;;0.28;0.28;;;8.70;99.90;;;;;;5052335;28;20033;-80
2021/12/07 00:19:58;;;;;;;0.43;0.43;;;8.70;99.90;;;;;;5052234;28;20017;-80
2021/12/07 00:22:25;;;;;;;16.45;2.10;;;8.70;99.90;;;;;;5052453;28;20064;-80
2021/12/07 00:24:51;;;;;;;0.00;0.00;;;8.70;99.90;;;;;;5052584;28;20029;-80
2021/12/07 00:27:17;;;;;;;0.43;0.43;;;8.70;99.90;;;;;;5052194;28;20067;-80
2021/12/07 00:29:43;;;;;;;0.00;0.00;;;8.70;99.90;;;;;;5052700;28;20025;-80
2021/12/07 00:37:23;;;;;;;0.15;0.15;;;8.70;99.90;;;;;;5052218;28;20037;-80
2021/12/07 00:39:48;;;;;;;1.98;1.30;;;8.70;99.90;;;;;;5052626;28;20083;-80
2021/12/07 00:42:14;;;;;;;0.00;0.00;;;8.80;99.90;;;;;;5052341;28;20033;-80
2021/12/07 00:44:40;;;;;;;2.08;1.35;;;8.80;99.90;;;;;;5052306;28;20017;-80
2021/12/07 00:47:05;;;;;;;0.47;0.43;;;8.80;99.90;;;;;;5050998;28;20025;-80
2021/12/07 00:49:31;;;;;;;0.95;0.75;;;8.80;99.90;;;;;;5051978;28;20029;-80
2021/12/07 00:51:57;;;;;;;2.30;0.98;;;8.90;99.90;;;;;;5052141;28;20029;-80
2021/12/07 00:54:22;;;;;;;1.95;0.45;;;8.90;99.90;;;;;;5052249;28;20491;-80
2021/12/07 00:56:48;;;;;;;0.20;0.20;;;8.90;99.90;;;;;;5052229;28;20471;-80
2021/12/07 00:59:14;;;;;;;3.00;0.65;;;9.00;99.90;;;;;;5050583;28;20029;-80
2021/12/07 01:01:40;;;;;;;0.47;0.47;;;9.00;99.90;;;;;;5051840;28;20049;-80
2021/12/07 01:04:07;;;;;;;0.88;0.88;;;9.10;99.90;;;;;;5051624;28;20075;-80
2021/12/07 01:07:36;;;;;;;0.70;0.70;;;9.10;99.90;;;;;;5052092;28;20056;-80
2021/12/07 01:09:41;;;;;;;0.80;0.75;;;9.10;99.90;;;;;;5047607;28;20064;-80
2021/12/07 01:25:55;;;;;;;1.20;0.32;;;9.00;99.90;;;;;;5041916;28;20074;-80
2021/12/07 01:30:56;;;;;;;0.52;0.52;;;9.30;99.90;;;;;;5056050;28;20036;-80
2021/12/07 01:59:36;;;;;;;7.30;1.60;;;9.20;99.90;;;;;;5055202;28;20035;-80
2021/12/07 02:02:08;;;;;;;0.00;0.00;;;9.20;99.90;;;;;;5054827;28;20096;-80
2021/12/07 02:04:35;;;;;;;0.10;0.10;;;9.20;99.90;;;;;;5054621;28;20021;-80
2021/12/07 02:07:01;;;;;;;4.03;1.02;;;9.20;99.90;;;;;;5055092;28;20033;-80
2021/12/07 02:09:27;;;;;;;0.00;0.00;;;9.20;99.90;;;;;;5054704;28;20029;-80
2021/12/07 02:11:59;;;;;;;0.00;0.00;;;9.20;99.90;;;;;;5054059;28;20111;-80
2021/12/07 02:14:25;;;;;;;0.10;0.10;;;9.10;99.90;;;;;;5054474;28;20037;-80
2021/12/07 02:16:55;;;;;;;0.00;0.00;;;9.20;99.90;;;;;;5054485;28;20098;-80
2021/12/07 02:19:21;;;;;;;0.22;0.22;;;9.30;99.90;;;;;;5054502;28;20036;-80
2021/12/07 02:21:48;;;;;;;0.43;0.43;;;9.30;99.90;;;;;;5054878;28;20032;-80
2021/12/07 02:24:13;;;;;;;9.80;0.60;;;9.30;99.90;;;;;;5054749;28;20523;-80
2021/12/07 02:26:40;;;;;;;0.00;0.00;;;9.20;99.90;;;;;;5054468;28;20056;-80
2021/12/07 02:29:06;;;;;;;0.00;0.00;;;9.10;99.90;;;;;;5054483;28;20039;-80
2021/12/07 02:31:33;;;;;;;1.95;1.38;;;9.00;99.90;;;;;;5054867;28;20053;-80
2021/12/07 02:34:00;;;;;;;0.28;0.28;;;8.90;99.90;;;;;;5054153;28;20057;-80
2021/12/07 02:36:26;;;;;;;0.03;0.03;;;8.80;99.90;;;;;;5054699;28;20422;-80
2021/12/07 02:38:52;;;;;;;0.00;0.00;;;8.80;99.90;;;;;;5053943;28;20021;-80
2021/12/07 02:41:18;;;;;;;0.00;0.00;;;8.80;99.90;;;;;;5054165;28;20067;-80
2021/12/07 02:43:44;;;;;;;0.00;0.00;;;8.70;99.90;;;;;;5054296;28;20044;-80
2021/12/07 02:46:11;;;;;;;0.00;0.00;;;8.60;99.90;;;;;;5054578;28;20032;-80
2021/12/07 02:48:37;;;;;;;8.38;1.45;;;8.50;99.90;;;;;;5052801;28;20032;-80
2021/12/07 02:51:03;;;;;;;0.00;0.00;;;8.40;99.90;;;;;;5054399;28;20025;-80
2021/12/07 02:53:31;;;;;;;0.00;0.00;;;8.30;99.90;;;;;;5053990;28;20105;-79
2021/12/07 02:55:59;;;;;;;9.45;1.65;;;8.30;99.90;;;;;;5054240;28;20074;-80
2021/12/07 02:58:26;;;;;;;0.00;0.00;;;8.30;99.90;;;;;;5054090;28;20036;-80
2021/12/07 03:01:02;;;;;;;0.00;0.00;;;8.30;99.90;;;;;;5053666;28;20028;-80
2021/12/07 03:03:31;;;;;;;1.98;1.55;;;8.20;99.90;;;;;;5053527;28;20551;-80
2021/12/07 03:27:52;;;;;;;0.00;0.00;;;8.00;99.90;;;;;;5053466;28;20537;-80
2021/12/07 03:30:18;;;;;;;0.20;0.20;;;8.00;99.90;;;;;;5053248;28;20112;-80
2021/12/07 03:32:43;;;;;;;2.00;1.27;;;7.90;99.90;;;;;;5053698;28;20109;-80
2021/12/07 03:35:09;;;;;;;0.28;0.28;;;7.90;99.90;;;;;;5052886;28;20053;-80
2021/12/07 03:37:34;;;;;;;0.10;0.08;;;7.90;99.90;;;;;;5053381;28;20069;-80
2021/12/07 03:40:01;;;;;;;1.80;1.17;;;7.70;99.90;;;;;;5053515;28;20501;-80
2021/12/07 03:42:26;;;;;;;3.53;1.15;;;7.70;99.90;;;;;;5050884;28;20511;-80
2021/12/07 03:44:52;;;;;;;0.00;0.00;;;7.70;99.90;;;;;;5053180;28;20029;-80
2021/12/07 03:47:17;;;;;;;0.00;0.00;;;7.60;99.90;;;;;;5052956;28;20044;-80
2021/12/07 03:49:43;;;;;;;0.75;0.52;;;7.50;99.90;;;;;;5051124;28;20051;-80
2021/12/07 03:52:09;;;;;;;5.47;1.50;;;7.50;99.90;;;;;;5052579;28;20037;-80
2021/12/07 03:54:35;;;;;;;0.00;0.00;;;7.40;99.90;;;;;;5052793;28;20040;-80
2021/12/07 03:57:00;;;;;;;0.00;0.00;;;7.40;99.90;;;;;;5052966;28;20036;-80
2021/12/07 03:59:26;;;;;;;3.83;1.55;;;7.40;99.90;;;;;;5052630;28;20056;-80
2021/12/07 04:01:52;;;;;;;0.68;0.68;;;7.40;99.90;;;;;;5052471;28;20104;-80
2021/12/07 04:04:18;;;;;;;0.13;0.13;;;7.40;99.90;;;;;;5052497;28;20075;-80
2021/12/07 04:06:44;;;;;;;0.00;0.00;;;7.30;99.90;;;;;;5053096;28;20033;-80
2021/12/07 04:09:10;;;;;;;4.55;2.22;;;7.20;99.90;;;;;;5052233;28;20075;-80
2021/12/07 04:11:35;;;;;;;1.02;0.98;;;7.20;99.90;;;;;;5046175;28;20526;-80
2021/12/07 04:14:01;;;;;;;0.00;0.00;;;7.30;99.90;;;;;;5032741;28;20060;-80
2021/12/07 04:16:27;;;;;;;0.43;0.43;;;7.30;99.90;;;;;;5044459;28;20025;-80
2021/12/07 04:18:53;;;;;;;1.40;1.35;;;7.20;99.90;;;;;;5051269;28;20021;-80
2021/12/07 04:21:19;;;;;;;0.63;0.63;;;7.20;99.90;;;;;;5052399;28;20028;-80
2021/12/07 04:23:44;;;;;;;6.82;1.65;;;7.20;99.90;;;;;;5052575;28;20025;-80
2021/12/07 04:26:12;;;;;;;4.85;1.98;;;7.30;99.90;;;;;;5052316;28;20032;-80
2021/12/07 04:28:39;;;;;;;0.05;0.05;;;7.40;99.90;;;;;;5052358;28;20126;-80
2021/12/07 04:31:07;;;;;;;0.28;0.28;;;7.40;99.90;;;;;;5052401;28;20028;-80
2021/12/07 04:33:33;;;;;;;1.90;0.75;;;7.40;99.90;;;;;;5051900;28;20480;-80
2021/12/07 04:36:00;;;;;;;2.50;1.75;;;7.30;99.90;;;;;;5052485;28;20373;-80
2021/12/07 04:38:26;;;;;;;0.00;0.00;;;7.40;99.90;;;;;;5051980;28;20037;-80
2021/12/07 04:40:53;;;;;;;10.15;2.40;;;7.40;99.90;;;;;;5052335;28;20032;-80
2021/12/07 04:43:18;;;;;;;0.85;0.75;;;7.50;99.90;;;;;;5052203;28;20495;-80
2021/12/07 04:58:58;;;;;;;0.60;0.60;;;7.60;99.90;;;;;;5052304;28;20040;-80
2021/12/07 05:01:25;;;;;;;0.95;0.65;;;7.60;99.90;;;;;;5052768;28;20469;-80
2021/12/07 05:03:54;;;;;;;0.20;0.20;;;7.60;99.90;;;;;;5056205;28;20044;-80
2021/12/07 05:06:23;;;;;;;1.13;1.08;;;7.60;99.90;;;;;;5055971;28;20033;-80
2021/12/07 05:08:56;;;;;;;3.30;2.38;;;7.70;99.90;;;;;;5055932;28;20017;-80
2021/12/07 05:24:27;;;;;;;0.00;0.00;;;8.00;99.90;;;;;;5055947;28;20155;-80
2021/12/07 05:40:15;;;;;;;3.40;1.65;;;8.00;99.90;;;;;;5055270;28;20036;-80
2021/12/07 05:42:41;;;;;;;1.10;0.85;;;8.00;99.90;;;;;;5053703;28;20468;-80
2021/12/07 05:45:10;;;;;;;7.93;1.55;;;8.00;99.90;;;;;;5055251;28;20032;-80
2021/12/07 05:47:36;;;;;;;0.20;0.20;;;8.00;99.90;;;;;;5055386;28;20491;-80
2021/12/07 05:50:04;;;;;;;0.10;0.10;;;8.10;99.90;;;;;;5054447;28;20078;-80
2021/12/07 05:52:30;;;;;;;3.40;1.08;;;8.00;99.90;;;;;;5054788;28;20033;-80
2021/12/07 05:54:56;;;;;;;0.00;0.00;;;8.00;99.90;;;;;;5055281;28;20403;-80
2021/12/07 05:57:21;;;;;;;0.00;0.00;;;8.00;99.90;;;;;;5054646;28;20033;-80
2021/12/07 05:59:47;;;;;;;0.00;0.00;;;8.00;99.90;;;;;;5055051;28;20061;-80
2021/12/07 06:02:13;;;;;;;1.05;0.77;;;8.00;99.90;;;;;;5054721;28;20029;-80
2021/12/07 06:04:39;;;;;;;0.00;0.00;;;8.00;99.90;;;;;;5054958;28;20021;-79
2021/12/07 06:07:05;;;;;;;0.85;0.30;;;8.00;99.90;;;;;;5054795;28;20060;-82
2021/12/07 06:09:31;;;;;;;0.00;0.00;;;8.10;99.90;;;;;;5054889;28;20029;-80
2021/12/07 06:11:57;;;;;;;0.20;0.20;;;8.10;99.90;;;;;;5046683;28;20021;-79
2021/12/07 06:14:30;;;;;;;0.00;0.00;;;8.10;99.90;;;;;;5033885;28;20037;-79
2021/12/07 06:16:56;;;;;;;0.00;0.00;;;8.00;99.90;;;;;;5050696;28;20112;-79
2021/12/07 06:19:22;;;;;;;0.38;0.38;;;8.10;99.90;;;;;;5054216;28;20071;-79
2021/12/07 06:21:47;;;;;;;1.58;0.50;;;8.10;99.90;;;;;;5052174;28;20040;-80
2021/12/07 06:24:13;;;;;;;2.25;1.52;;;8.10;99.90;;;;;;5054455;28;20036;-80
2021/12/07 06:26:39;;;;;;;1.67;1.55;;;8.20;99.90;;;;;;5054306;28;20060;-80
2021/12/07 06:29:04;;;;;;;0.00;0.00;;;8.20;99.90;;;;;;5054516;28;20025;-80
2021/12/07 06:31:31;;;;;;;0.00;0.00;;;8.20;99.90;;;;;;5054704;28;20490;-79
2021/12/07 06:33:56;;;;;;;0.00;0.00;;;8.20;99.90;;;;;;5054240;28;20025;-79
2021/12/07 06:36:24;;;;;;;6.05;0.63;;;8.20;99.90;;;;;;5042937;28;20401;-81
2021/12/07 06:38:50;;;;;;;0.28;0.28;;;8.30;99.90;;;;;;5054551;28;20449;-80
2021/12/07 06:41:16;;;;;;;0.00;0.00;;;8.20;99.90;;;;;;5054038;28;20033;-80
2021/12/07 06:43:41;;;;;;;1.65;0.73;;;8.30;99.90;;;;;;5054261;28;20418;-81
2021/12/07 06:46:07;;;;;;;11.68;1.77;;;8.30;99.90;;;;;;5054099;28;20112;-80
2021/12/07 06:48:33;;;;;;;0.00;0.00;;;8.30;99.90;;;;;;5053558;28;20025;-80
2021/12/07 06:50:59;;;;;;;0.15;0.15;;;8.30;99.90;;;;;;5053683;28;20403;-81
2021/12/07 06:53:25;;;;;;;0.10;0.10;;;8.40;99.90;;;;;;5053380;28;20017;-81
2021/12/07 06:55:50;;;;;;;0.00;0.00;;;8.40;99.90;;;;;;5053923;28;20480;-79
2021/12/07 06:58:16;;;;;;;0.35;0.35;;;8.40;99.90;;;;;;5053810;28;20573;-80
2021/12/07 07:00:42;;;;;;;1.65;0.65;;;8.40;99.90;;;;;;5053746;28;20025;-81
2021/12/07 07:03:08;;;;;;;0.10;0.03;;;8.40;99.90;;;;;;5053790;28;20035;-81
2021/12/07 07:05:34;;;;;;;1.00;0.38;;;8.40;99.90;;;;;;5052781;28;20024;-80
2021/12/07 07:08:01;;;;;;;0.73;0.35;;;8.40;99.90;;;;;;5053781;28;20033;-80
2021/12/07 07:10:27;;;;;;;0.60;0.60;;;8.40;99.90;;;;;;5050172;28;20056;-81
2021/12/07 07:12:53;;;;;;;1.65;1.35;;;8.40;99.90;;;;;;5043083;28;20067;-79
2021/12/07 07:15:19;;;;;;;0.00;0.00;;;8.50;99.90;;;;;;5052157;28;20440;-79
2021/12/07 07:17:44;;;;;;;0.32;0.32;;;8.50;99.90;;;;;;5052074;28;20459;-80
2021/12/07 07:20:13;;;;;;;0.30;0.30;;;8.50;99.90;;;;;;5051604;28;20056;-80
2021/12/07 07:22:39;;;;;;;0.00;0.00;;;8.50;99.90;;;;;;5051292;28;20035;-79
2021/12/07 07:25:06;;;;;;;0.25;0.10;;;8.60;99.90;;;;;;5042248;28;20051;-80
2021/12/07 07:27:32;;;;;;;0.75;0.75;;;8.60;99.90;;;;;;5045392;28;20036;-80
2021/12/07 07:29:58;;;;;;;1.88;0.55;;;8.60;99.90;;;;;;5052421;28;20524;-79
2021/12/07 07:32:23;;;;;;;0.00;0.00;;;8.60;99.90;;;;;;5049140;28;20493;-79
2021/12/07 07:34:49;;;;;;;0.82;0.82;;;8.60;99.90;;;;;;5051949;28;20020;-79
2021/12/07 07:37:15;;;;;;;0.00;0.00;;;8.70;99.90;;;;;;5046548;28;20462;-79
2021/12/07 07:39:41;;;;;;;3.63;1.00;;;8.70;99.90;;;;;;5050516;28;20028;-79
2021/12/07 07:42:08;;;;;;;0.32;0.32;;;8.70;99.90;;;;;;5051223;28;20048;-80
2021/12/07 07:44:34;;;;;;;0.10;0.10;;;8.70;99.90;;;;;;5050916;28;20025;-79
2021/12/07 07:46:59;;;;;;;0.32;0.32;;;8.70;99.90;;;;;;5052172;28;20033;-80
2021/12/07 07:49:25;;;;;;;4.95;1.20;;;8.70;99.90;;;;;;5051244;28;20064;-79
2021/12/07 07:51:51;;;;;;;0.63;0.50;;;8.70;99.90;;;;;;5051030;28;20037;-79
2021/12/07 07:54:16;;;;;;;0.38;0.38;;;8.70;99.90;;;;;;5037278;28;20025;-80
2021/12/07 07:56:42;;;;;;;0.00;0.00;;;8.70;99.90;;;;;;5046420;28;20041;-78
2021/12/07 07:59:08;;;;;;;0.70;0.70;;;8.70;99.90;;;;;;5040209;28;20112;-78
2021/12/07 08:01:33;;;;;;;0.20;0.20;;;8.70;99.90;;;;;;5038905;28;20040;-79
2021/12/07 08:04:01;;;;;;;0.05;0.05;;;8.70;99.90;;;;;;5038627;28;20032;-81
2021/12/07 08:06:27;;;;;;;0.15;0.15;;;8.80;99.90;;;;;;5041461;28;20087;-78
2021/12/07 08:08:52;;;;;;;0.00;0.00;;;8.80;99.90;;;;;;5041444;28;20024;-76
2021/12/07 08:11:18;;;;;;;1.65;1.02;;;8.80;99.90;;;;;;5044109;28;20554;-77
2021/12/07 08:13:44;;;;;;;0.00;0.00;;;8.80;99.90;;;;;;5047208;28;20075;-76
2021/12/07 08:16:15;;;;;;;0.30;0.30;;;8.90;99.90;;;;;;5048713;28;20037;-76
2021/12/07 08:18:45;;;;;;;0.08;0.08;;;8.90;99.90;;;;;;5047221;28;20040;-76
2021/12/07 08:21:12;;;;;;;0.00;0.00;;;9.00;99.90;;;;;;5047192;28;20064;-76
2021/12/07 08:23:39;;;;;;;5.63;1.27;;;9.00;99.90;;;;;;5048842;28;20055;-76
2021/12/07 08:26:06;;;;;;;0.00;0.00;;;9.10;99.90;;;;;;5048281;28;20021;-76
2021/12/07 08:28:32;;;;;;;0.00;0.00;;;9.10;99.90;;;;;;5047898;28;20079;-76
2021/12/07 08:30:58;;;;;;;2.85;0.65;;;9.20;99.90;;;;;;5048827;28;20096;-76
2021/12/07 08:33:24;;;;;;;0.00;0.00;;;9.30;99.90;;;;;;5046256;28;20104;-76
2021/12/07 08:35:49;;;;;;;0.65;0.65;;;9.30;99.90;;;;;;5047465;28;20017;-77
2021/12/07 08:38:16;;;;;;;0.57;0.57;;;9.30;99.90;;;;;;5045425;28;20468;-75
2021/12/07 08:40:42;;;;;;;0.43;0.43;;;9.30;99.90;;;;;;5039640;28;20032;-77
2021/12/07 08:43:11;;;;;;;0.00;0.00;;;9.30;99.90;;;;;;5047809;28;20444;-76
2021/12/07 08:45:41;;;;;;;0.00;0.00;;;9.40;99.90;;;;;;5046381;28;20029;-77
2021/12/07 08:48:08;;;;;;;0.00;0.00;;;9.30;99.90;;;;;;5046632;28;20049;-75
2021/12/07 08:50:34;;;;;;;0.63;0.63;;;9.40;99.90;;;;;;5047709;28;20368;-76
2021/12/07 08:53:03;;;;;;;0.13;0.13;;;9.40;99.90;;;;;;5044315;28;20025;-75
2021/12/07 09:01:00;;;;;;;0.10;0.10;;;9.40;99.90;;;;;;5042251;28;20035;-76
2021/12/07 09:03:27;;;;;;;0.00;0.00;;;9.40;99.90;;;;;;5044439;28;20035;-76
2021/12/07 09:05:54;;;;;;;0.00;0.00;;;9.50;99.90;;;;;;5044373;28;20122;-76
2021/12/07 09:08:20;;;;;;;0.03;0.03;;;9.50;99.90;;;;;;5040175;28;20043;-76
2021/12/07 09:10:45;;;;;;;12.45;1.73;;;9.50;99.90;;;;;;5044895;28;20056;-78
2021/12/07 09:13:11;;;;;;;0.80;0.80;;;9.40;99.90;;;;;;5042966;28;20028;-77
2021/12/07 09:15:38;;;;;;;0.32;0.32;;;9.50;99.90;;;;;;5047197;28;20121;-76
2021/12/07 09:18:03;;;;;;;2.83;0.80;;;9.40;99.90;;;;;;5046995;28;20033;-76
2021/12/07 09:20:30;;;;;;;3.50;2.05;;;9.50;99.90;;;;;;5046877;28;20032;-76
2021/12/07 09:22:56;;;;;;;0.28;0.28;;;9.50;99.90;;;;;;5041506;28;20094;-76
2021/12/07 09:25:22;;;;;;;3.40;1.98;;;9.50;99.90;;;;;;5033163;28;20041;-77
2021/12/07 09:27:47;;;;;;;0.00;0.00;;;9.50;99.90;;;;;;5047326;28;20396;-77
2021/12/07 09:30:16;;;;;;;5.20;1.60;;;9.50;99.90;;;;;;5047764;28;20112;-75
2021/12/07 09:32:42;;;;;;;14.60;0.85;;;9.50;99.90;;;;;;5046889;28;20109;-75
2021/12/07 09:35:09;;;;;;;0.03;0.03;;;9.60;99.90;;;;;;5046956;28;20059;-75
2021/12/07 09:37:36;;;;;;;0.00;0.00;;;9.60;99.90;;;;;;5046625;28;20132;-77
2021/12/07 09:40:05;;;;;;;0.00;0.00;;;9.60;99.90;;;;;;5044699;28;20591;-77
2021/12/07 09:42:31;;;;;;;0.65;0.65;;;9.70;99.90;;;;;;5047397;28;20029;-76
2021/12/07 09:44:56;;;;;;;2.17;0.93;;;9.70;99.90;;;;;;5046516;28;20768;-77
2021/12/07 09:47:23;;;;;;;0.10;0.10;;;9.70;99.90;;;;;;5047804;28;20029;-78
2021/12/07 09:49:49;;;;;;;1.65;1.40;;;9.80;99.90;;;;;;5050478;28;20422;-76
2021/12/07 09:52:14;;;;;;;0.10;0.10;;;9.80;99.90;;;;;;5049295;28;20037;-77
2021/12/07 09:54:40;;;;;;;10.02;1.02;;;9.80;99.90;;;;;;5050329;28;20472;-76
2021/12/07 09:57:06;;;;;;;5.82;1.13;;;9.80;99.90;;;;;;5047701;28;20697;-77
2021/12/07 09:59:31;;;;;;;2.40;1.45;;;9.90;99.90;;;;;;5048551;28;20103;-77
2021/12/07 10:01:57;;;;;;;0.00;0.00;;;10.00;99.90;;;;;;5050739;28;20116;-77
2021/12/07 10:04:27;;;;;;;0.43;0.43;;;10.00;99.90;;;;;;5050991;28;20522;-78
2021/12/07 10:06:54;;;;;;;0.00;0.00;;;10.10;99.90;;;;;;5050125;28;20037;-76
2021/12/07 10:09:21;;;;;;;2.47;1.40;;;10.10;99.90;;;;;;5046920;28;20032;-81
2021/12/07 10:11:52;;;;;;;2.50;1.23;;;10.20;99.90;;;;;;5049173;28;20032;-76
2021/12/07 10:14:18;;;;;;;0.00;0.00;;;10.20;99.90;;;;;;5050571;28;20036;-77
2021/12/07 10:16:46;;;;;;;0.75;0.43;;;10.10;99.90;;;;;;5049265;28;20024;-76
2021/12/07 10:19:15;;;;;;;0.70;0.70;;;10.10;99.90;;;;;;5051170;28;20025;-76
2021/12/07 10:21:43;;;;;;;0.47;0.47;;;10.00;99.90;;;;;;5050993;28;20025;-77
2021/12/07 10:24:11;;;;;;;1.55;0.98;;;10.00;99.90;;;;;;5051661;28;20036;-76
2021/12/07 10:26:42;;;;;;;0.08;0.08;;;10.00;99.90;;;;;;5049585;28;20036;-77
2021/12/07 10:29:17;;;;;;;0.47;0.43;;;10.10;99.90;;;;;;5041095;28;20037;-76
2021/12/07 10:31:56;;;;;;;0.75;0.35;;;10.10;99.90;;;;;;5049428;28;20040;-76
2021/12/07 10:34:24;;;;;;;0.00;0.00;;;10.10;99.90;;;;;;5049140;28;20036;-75
2021/12/07 10:36:55;;;;;;;0.22;0.22;;;10.10;99.90;;;;;;5050471;28;20568;-77
2021/12/07 10:39:26;;;;;;;3.42;1.35;;;10.10;99.90;;;;;;5043838;28;20029;-77
2021/12/07 10:41:57;;;;;;;0.00;0.00;;;10.00;99.90;;;;;;5050263;28;20032;-77
2021/12/07 10:44:25;;;;;;;0.00;0.00;;;10.00;99.90;;;;;;5050230;28;20029;-77
2021/12/07 10:46:58;;;;;;;0.52;0.52;;;9.80;99.90;;;;;;5050259;28;20021;-78
2021/12/07 10:49:54;;;;;;;0.00;0.00;;;9.70;99.90;;;;;;5050167;28;20048;-78
2021/12/07 10:52:27;;;;;;;0.10;0.10;;;9.60;99.90;;;;;;5049647;28;20037;-78
2021/12/07 10:55:04;;;;;;;0.50;0.50;;;9.50;99.90;;;;;;5048472;28;20037;-78
2021/12/07 10:57:43;;;;;;;1.23;1.13;;;9.40;99.90;;;;;;5049761;28;20028;-76
2021/12/07 11:00:12;;;;;;;0.32;0.32;;;9.30;99.90;;;;;;5046964;28;20045;-78
2021/12/07 11:02:41;;;;;;;0.10;0.10;;;9.30;99.90;;;;;;5050129;28;20074;-78
2021/12/07 11:05:17;;;;;;;0.10;0.10;;;9.20;99.90;;;;;;5048884;28;20395;-77
2021/12/07 11:07:42;;;;;;;0.00;0.00;;;9.10;99.90;;;;;;5049855;28;20132;-75
2021/12/07 11:10:24;;;;;;;0.10;0.10;;;9.10;99.90;;;;;;5048023;28;20539;-78
2021/12/07 11:13:00;;;;;;;0.00;0.00;;;9.00;99.90;;;;;;5049677;28;20056;-77
2021/12/07 11:15:32;;;;;;;12.13;1.80;;;8.90;99.90;;;;;;5048175;28;20457;-78
2021/12/07 11:18:04;;;;;;;0.00;0.00;;;8.90;99.90;;;;;;5049143;28;20135;-77
2021/12/07 11:20:31;;;;;;;0.38;0.32;;;8.90;99.90;;;;;;5049541;28;20144;-76
2021/12/07 11:23:26;;;;;;;0.10;0.10;;;8.80;99.90;;;;;;5043278;28;20514;-75
2021/12/07 11:31:18;;;;;;;0.00;0.00;;;8.70;99.90;;;;;;5038848;28;20032;-75
2021/12/07 11:33:45;;;;;;;3.60;1.70;;;8.70;99.90;;;;;;5047375;28;20108;-75
2021/12/07 11:36:33;;;;;;;0.15;0.15;;;8.70;99.90;;;;;;5047079;28;20108;-77
2021/12/07 11:39:00;;;;;;;0.00;0.00;;;8.70;99.90;;;;;;5049220;28;20464;-76
2021/12/07 11:41:33;;;;;;;0.00;0.00;;;8.70;99.90;;;;;;5047811;28;20021;-76
2021/12/07 11:44:08;;;;;;;3.05;1.17;;;8.70;99.90;;;;;;5037800;28;20033;-78
2021/12/07 11:46:37;;;;;;;0.32;0.32;;;8.70;99.90;;;;;;5046330;28;20475;-77
2021/12/07 11:49:09;;;;;;;0.03;0.03;;;8.70;99.90;;;;;;5048104;28;20442;-77
2021/12/07 11:51:35;;;;;;;0.10;0.10;;;8.80;99.90;;;;;;5047757;28;20128;-76
2021/12/07 11:54:01;;;;;;;0.25;0.25;;;8.70;99.90;;;;;;5045563;28;20033;-76
2021/12/07 11:56:27;;;;;;;1.27;0.80;;;8.70;99.90;;;;;;5045844;28;20055;-78
2021/12/07 11:58:52;;;;;;;0.00;0.00;;;8.70;99.90;;;;;;5046666;28;20893;-76
2021/12/07 12:01:19;;;;;;;0.35;0.35;;;8.80;99.90;;;;;;5045009;28;20096;-78
2021/12/07 12:03:44;;;;;;;0.65;0.35;;;8.80;99.90;;;;;;5045477;28;20377;-77
2021/12/07 12:06:10;;;;;;;0.00;0.00;;;8.80;99.90;;;;;;5041575;28;20036;-78
2021/12/07 12:08:36;;;;;;;5.93;0.80;;;8.80;99.90;;;;;;5046668;28;20552;-79
2021/12/07 12:11:17;;;;;;;0.00;0.00;;;8.80;99.90;;;;;;5044290;28;20057;-78
2021/12/07 12:14:11;;;;;;;0.00;0.00;;;8.80;99.90;;;;;;5046114;28;20083;-75
2021/12/07 12:16:52;;;;;;;0.45;0.30;;;8.90;99.90;;;;;;5045956;28;20098;-79
2021/12/07 12:19:29;;;;;;;0.22;0.22;;;8.80;99.90;;;;;;5046656;28;20028;-77
2021/12/07 12:22:16;;;;;;;0.00;0.00;;;8.80;99.90;;;;;;5045029;28;20032;-76
2021/12/07 12:24:50;;;;;;;9.00;1.98;;;8.80;99.90;;;;;;5025584;28;20045;-77
2021/12/07 12:27:17;;;;;;;;;;;8.80;99.90;;;;;;5046121;28;20115;-77
2021/12/07 12:29:45;;;;;;;0.38;0.38;;;8.80;99.90;;;;;;5042856;28;19955;-76
2021/12/07 12:32:11;;;;;;;0.00;0.00;;;8.80;99.90;;;;;;5045743;28;20108;-76
2021/12/07 12:34:58;;;;;;;0.00;0.00;;;8.80;99.90;;;;;;5041756;28;20039;-76
2021/12/07 12:37:29;;;;;;;0.00;0.00;;;8.80;99.90;;;;;;5042142;28;20033;-76
2021/12/07 12:40:10;;;;;;;0.03;0.03;;;8.90;99.90;;;;;;5039957;28;20049;-75
2021/12/07 12:42:46;;;;;;;0.03;0.03;;;8.90;99.90;;;;;;5041349;28;20086;-79
2021/12/07 12:45:23;;;;;;;0.00;0.00;;;9.10;99.90;;;;;;5046267;28;20099;-78
2021/12/07 12:48:07;;;;;;;0.00;0.00;;;9.00;99.90;;;;;;5042576;28;20054;-80
2021/12/07 12:50:50;;;;;;;0.00;0.00;;;9.00;99.90;;;;;;5040430;28;20033;-79
2021/12/07 12:53:34;;;;;;;0.00;0.00;;;9.10;99.90;;;;;;5043652;28;20041;-77
2021/12/07 12:56:03;;;;;;;0.00;0.00;;;9.10;99.90;;;;;;5036270;28;20049;-78
2021/12/07 12:58:30;;;;;;;0.00;0.00;;;9.20;99.90;;;;;;5046226;28;20064;-77
2021/12/07 13:01:28;;;;;;;0.00;0.00;;;9.20;99.90;;;;;;5044837;28;20103;-76
2021/12/07 13:04:15;;;;;;;0.00;0.00;;;9.20;99.90;;;;;;5047207;28;20032;-78
2021/12/07 13:07:03;;;;;;;0.15;0.15;;;9.30;99.90;;;;;;5046881;28;20032;-76
2021/12/07 13:09:34;;;;;;;0.00;0.00;;;9.40;99.90;;;;;;5047629;28;20067;-77
2021/12/07 13:12:13;;;;;;;0.00;0.00;;;9.50;99.90;;;;;;5047249;28;20029;-77
2021/12/07 13:14:41;;;;;;;0.00;0.00;;;9.60;99.90;;;;;;5047643;28;20032;-78
2021/12/07 13:17:28;;;;;;;0.63;0.32;;;9.70;99.90;;;;;;5047517;28;20033;-76
2021/12/07 13:20:09;;;;;;;0.00;0.00;;;9.70;99.90;;;;;;5047790;28;20035;-79
2021/12/07 13:23:05;;;;;;;0.03;0.03;;;9.80;99.90;;;;;;5049041;28;20100;-78
2021/12/07 13:25:48;;;;;;;0.00;0.00;;;9.80;99.90;;;;;;5041492;28;20029;-79
2021/12/07 13:28:21;;;;;;;2.65;0.52;;;9.70;99.90;;;;;;5050451;28;20222;-79
2021/12/07 13:30:55;;;;;;;0.00;0.00;;;9.80;99.90;;;;;;5050079;28;20718;-75
2021/12/07 13:33:31;;;;;;;0.10;0.10;;;9.80;99.90;;;;;;5051216;28;20037;-76
2021/12/07 13:35:58;;;;;;;0.00;0.00;;;9.80;99.90;;;;;;5050425;28;20032;-77
2021/12/07 13:38:28;;;;;;;0.57;0.40;;;9.90;99.90;;;;;;5045931;28;20049;-76
2021/12/07 13:41:15;;;;;;;0.00;0.00;;;9.80;99.90;;;;;;5050886;28;20037;-77
2021/12/07 13:43:47;;;;;;;0.00;0.00;;;9.90;99.90;;;;;;5048726;28;20033;-79
2021/12/07 13:46:25;;;;;;;0.00;0.00;;;10.00;99.90;;;;;;5051554;28;20028;-78
2021/12/07 13:49:09;;;;;;;0.10;0.10;;;10.00;99.90;;;;;;5051276;28;20055;-77
2021/12/07 13:51:36;;;;;;;0.00;0.00;;;10.10;99.90;;;;;;5046054;28;20464;-79
2021/12/07 13:54:04;;;;;;;0.30;0.05;;;10.20;99.90;;;;;;5050828;28;20032;-78
2021/12/07 13:56:38;;;;;;;0.20;0.20;;;10.20;99.90;;;;;;5050243;28;20542;-80
2021/12/07 13:59:10;;;;;;;0.00;0.00;;;10.40;99.90;;;;;;5051411;28;20017;-77
2021/12/07 14:01:39;;;;;;;1.95;1.02;;;10.40;99.90;;;;;;5050776;28;20439;-78
2021/12/07 14:04:06;;;;;;;0.00;0.00;;;10.50;99.90;;;;;;5051114;28;20119;-76
2021/12/07 14:06:32;;;;;;;0.10;0.10;;;10.50;99.90;;;;;;5047107;28;20078;-78
2021/12/07 14:09:05;;;;;;;0.00;0.00;;;10.60;99.90;;;;;;5050766;28;20091;-77
2021/12/07 14:11:30;;;;;;;;;;;10.70;99.90;;;;;;5049752;28;20090;-80
2021/12/07 14:13:56;;;;;;;0.08;0.08;;;11.10;99.90;;;;;;5050698;28;20383;-76
2021/12/07 14:16:24;;;;;;;0.05;0.05;;;11.30;99.90;;;;;;5050737;28;20100;-79
2021/12/07 14:18:50;;;;;;;0.05;0.05;;;11.60;99.90;;;;;;5050995;28;20032;-78
2021/12/07 14:21:15;;;;;;;0.00;0.00;;;11.60;99.90;;;;;;5051016;28;20032;-80
2021/12/07 14:23:44;;;;;;;0.00;0.00;;;11.80;99.90;;;;;;5051462;28;20400;-81
2021/12/07 14:26:25;;;;;;;1.35;0.68;;;12.00;99.90;;;;;;5045574;28;20468;-79
2021/12/07 14:29:02;;;;;;;2.83;1.13;;;12.40;99.90;;;;;;5051414;28;20014;-79
2021/12/07 14:31:40;;;;;;;1.95;1.35;;;12.50;99.90;;;;;;5049083;28;20025;-78
2021/12/07 14:34:12;;;;;;;0.52;0.50;;;12.50;99.90;;;;;;5048037;28;20036;-78
2021/12/07 14:36:40;;;;;;;18.30;2.85;;;12.50;99.90;;;;;;5051084;28;20104;-79
2021/12/07 14:39:15;;;;;;;22.60;3.25;;;12.40;99.90;;;;;;5050070;28;20025;-77
2021/12/07 14:42:21;;;;;;;0.68;0.68;;;12.40;99.90;;;;;;5049806;28;20384;-77
2021/12/07 14:44:54;;;;;;;0.28;0.28;;;12.40;99.90;;;;;;5047532;28;20025;-78
2021/12/07 14:47:20;;;;;;;1.35;0.90;;;12.50;99.90;;;;;;5049823;28;20068;-77
2021/12/07 14:49:50;;;;;;;0.70;0.63;;;12.50;99.90;;;;;;5049777;28;20067;-77
2021/12/07 14:52:24;;;;;;;7.68;1.95;;;12.40;99.90;;;;;;5046099;28;20123;-77
2021/12/07 14:54:52;;;;;;;1.15;1.08;;;12.40;99.90;;;;;;5047127;28;20091;-78
2021/12/07 14:57:20;;;;;;;2.47;0.40;;;12.40;99.90;;;;;;5047202;28;20794;-78
2021/12/07 14:59:47;;;;;;;0.55;0.20;;;12.30;99.90;;;;;;5050103;28;20032;-77
2021/12/07 15:02:13;;;;;;;0.63;0.63;;;12.20;99.90;;;;;;5047950;28;20025;-80
2021/12/07 15:04:39;;;;;;;1.65;1.02;;;12.20;99.90;;;;;;5047674;28;20032;-79